Greenville Spartanburg International Airport
KGSP : now visible

Airfield :











YOU CAN JOIN US ON...

 
LOGIN :

Register | Disclaimer

   EN    FR    IT 

 









Legend :    VFR   Marginal VFR   IFR   Intensive IFR   Very Intensive IFR
Visi :
Ceiling :
>= 8 km
>= 3000ft
5 to 8 km
1000 to 3000 ft
1500m to 5 km
500 to 1000 ft
800 to 1500m
200 to 500 ft
< 800m
< 200 ft
Symbols :   Thunderstorms  Fog  Heavy snow  Heavy precipitations  Wind > 20 kt






- Airport Elevation : 964 ft
- IATA code : GSP


KGSP - Greenville Spartanburg International

CURRENT METAR :
  • 152253Z 22011KT 10SM CLR 08/M08 A2967 RMK AO2 SLP049 T00831078

EXPIRED METARs :
  • 152153Z 18008KT 10SM CLR 11/M02 A2966 RMK AO2 SLP044 T01061022
  • 152053Z 19012KT 10SM CLR 11/00 A2965 RMK AO2 SLP040 T01110000 55015

TAF KGSP
Valid from the 15 at 20:00 until the 16 at 18:00 UTC


151950Z 1520/1618 23010KT P6SM FEW016
FM160000 23004KT P6SM FEW250
FM161300 21008KT P6SM OVC040
FM161500 24015G22KT P6SM BKN050
KZTL FIR / North America



MET'MAP, your aeronautical weather chart ! - Copyright ORBIFLY December 2007 - Disclaimer

ORBIFLY MET'MAP TEAM :

Programming & Development : Alexandra Zaïnal
Concept & original design : Baudouin d'Aumeries
Assistance for programming : Marc-Olivier Méhu
Technical & hardware support : Manuel Goepfert

Contact : metmap@orbifly.com




SOURCES & CREDITS :

   NOAA       Earth
Advisory